AFR026 LFPG-KLAX
Flight info
| Callsign | AFR026 |
|---|---|
| Flight time | N/A |
| Altitude | 36000 |
| Route | ATREX DCT VESAN DCT RATUK DCT SOVAT L613 SANDY UN601 LESTA UP6 RODOL UM65 TENSO L603 BELOX DCT NELBO DCT GOTNA DCT DIMLI DCT MIMKU DCT AGORI/M084F360 DCT 58N020W 60N030W 61N040W 61N050W/M084F380 DCT MAXAR DCT MIBNO/N0473F380 DCT GOSEP/N0479F400 DCT YTL DCT YRL DCT HML DCT KP18C DCT KP06A DCT KD84Y DCT KD75W DCT KD66U DCT KD60S DCT EDLES DCT KU45O DCT LAKRR DCT HAKMN ANJLL4 |
| Aircraft | A359/H-SDE2E3GHIJ3J4J5LM1ORWXY/LB1D1 |
Departure
| Time | N/A |
|---|---|
| Airport | Charles de Gaulle International Airport (LFPG) |
Arrival
| Time | 2026-04-25 20:15 |
|---|---|
| Airport | Los Angeles International Airport (KLAX) |
| Time | Latitude | Longitude | Altitude | Speed | Heading |
|---|---|---|---|---|---|
| 2026-04-25 19:09 | 37.59783 | -111.83347 | 39819 ft | 408 kts | 237° |
| 2026-04-25 19:09 | 37.58666 | -111.85249 | 39822 ft | 408 kts | 237° |
| 2026-04-25 19:10 | 37.53037 | -111.94817 | 39847 ft | 408 kts | 237° |
| 2026-04-25 19:10 | 37.49658 | -112.00558 | 39842 ft | 408 kts | 237° |
| 2026-04-25 19:11 | 37.46004 | -112.06708 | 39825 ft | 408 kts | 237° |
| 2026-04-25 19:11 | 37.42583 | -112.12395 | 39797 ft | 407 kts | 236° |
| 2026-04-25 19:12 | 37.39179 | -112.18033 | 39766 ft | 406 kts | 236° |
| 2026-04-25 19:12 | 37.35766 | -112.23700 | 39734 ft | 406 kts | 236° |
| 2026-04-25 19:13 | 37.32365 | -112.29348 | 39734 ft | 405 kts | 236° |
| 2026-04-25 19:13 | 37.28950 | -112.34999 | 39741 ft | 405 kts | 236° |
| 2026-04-25 19:14 | 37.25536 | -112.40642 | 39740 ft | 406 kts | 236° |
| 2026-04-25 19:14 | 37.22115 | -112.46295 | 39748 ft | 406 kts | 236° |
| 2026-04-25 19:15 | 37.18723 | -112.51890 | 39742 ft | 405 kts | 236° |
| 2026-04-25 19:15 | 37.15558 | -112.57094 | 39744 ft | 406 kts | 236° |
| 2026-04-25 19:16 | 37.12130 | -112.62723 | 39742 ft | 406 kts | 236° |
| 2026-04-25 19:16 | 37.08700 | -112.68349 | 39790 ft | 406 kts | 236° |
| 2026-04-25 19:17 | 37.05271 | -112.73965 | 39822 ft | 406 kts | 236° |
| 2026-04-25 19:17 | 37.01841 | -112.79575 | 39855 ft | 406 kts | 236° |
| 2026-04-25 19:18 | 36.98408 | -112.85177 | 39886 ft | 406 kts | 236° |
| 2026-04-25 19:18 | 36.94977 | -112.90760 | 39911 ft | 407 kts | 236° |
| 2026-04-25 19:19 | 36.91532 | -112.96361 | 39914 ft | 406 kts | 236° |
| 2026-04-25 19:19 | 36.88086 | -113.01959 | 39917 ft | 406 kts | 236° |
| 2026-04-25 19:20 | 36.84640 | -113.07547 | 39896 ft | 406 kts | 236° |
| 2026-04-25 19:20 | 36.81183 | -113.13142 | 39865 ft | 406 kts | 235° |
| 2026-04-25 19:21 | 36.77726 | -113.18727 | 39819 ft | 406 kts | 235° |
| 2026-04-25 19:21 | 36.72570 | -113.27037 | 39787 ft | 404 kts | 235° |
| 2026-04-25 19:22 | 36.69125 | -113.32579 | 39758 ft | 404 kts | 235° |
| 2026-04-25 19:23 | 36.63954 | -113.40881 | 39757 ft | 404 kts | 235° |
| 2026-04-25 19:23 | 36.58769 | -113.49184 | 39757 ft | 404 kts | 235° |
| 2026-04-25 19:24 | 36.55335 | -113.54673 | 39752 ft | 404 kts | 235° |
| 2026-04-25 19:25 | 36.48416 | -113.65706 | 39749 ft | 404 kts | 235° |
| 2026-04-25 19:25 | 36.44960 | -113.71208 | 39745 ft | 403 kts | 235° |
| 2026-04-25 19:26 | 36.41496 | -113.76705 | 39738 ft | 403 kts | 235° |
| 2026-04-25 19:26 | 36.38062 | -113.82149 | 39742 ft | 403 kts | 235° |
| 2026-04-25 19:27 | 36.35746 | -113.85815 | 39725 ft | 403 kts | 235° |
| 2026-04-25 19:27 | 36.31137 | -113.93099 | 39725 ft | 403 kts | 235° |
| 2026-04-25 19:28 | 36.27676 | -113.98558 | 39721 ft | 403 kts | 235° |
| 2026-04-25 19:28 | 36.24235 | -114.03980 | 39704 ft | 402 kts | 234° |
| 2026-04-25 19:29 | 36.20772 | -114.09434 | 39704 ft | 403 kts | 234° |
| 2026-04-25 19:29 | 36.17301 | -114.14888 | 39698 ft | 403 kts | 234° |
| 2026-04-25 19:30 | 36.14413 | -114.19410 | 39703 ft | 403 kts | 234° |
| 2026-04-25 19:30 | 36.10931 | -114.24856 | 39698 ft | 403 kts | 234° |
| 2026-04-25 19:31 | 36.07445 | -114.30264 | 39689 ft | 402 kts | 232° |
| 2026-04-25 19:31 | 36.03697 | -114.35413 | 39692 ft | 402 kts | 231° |
| 2026-04-25 19:32 | 35.99978 | -114.40506 | 39684 ft | 402 kts | 231° |
| 2026-04-25 19:32 | 35.96849 | -114.44822 | 39698 ft | 403 kts | 231° |
| 2026-04-25 19:33 | 35.92505 | -114.50819 | 39715 ft | 403 kts | 231° |
| 2026-04-25 19:33 | 35.88761 | -114.55986 | 39725 ft | 403 kts | 231° |
| 2026-04-25 19:34 | 35.85014 | -114.61149 | 39687 ft | 403 kts | 231° |
| 2026-04-25 19:34 | 35.81302 | -114.66258 | 39741 ft | 402 kts | 232° |
| 2026-04-25 19:35 | 35.77563 | -114.71397 | 39736 ft | 402 kts | 231° |
| 2026-04-25 19:35 | 35.73820 | -114.76532 | 39742 ft | 403 kts | 231° |
| 2026-04-25 19:36 | 35.70071 | -114.81667 | 39782 ft | 403 kts | 231° |
| 2026-04-25 19:36 | 35.66319 | -114.86803 | 39785 ft | 403 kts | 231° |
| 2026-04-25 19:37 | 35.62585 | -114.91902 | 39782 ft | 403 kts | 231° |
| 2026-04-25 19:37 | 35.58810 | -114.97049 | 39782 ft | 403 kts | 231° |
| 2026-04-25 19:38 | 35.55083 | -115.02123 | 39813 ft | 402 kts | 231° |
| 2026-04-25 19:38 | 35.51339 | -115.07214 | 39802 ft | 401 kts | 231° |
| 2026-04-25 19:39 | 35.47549 | -115.12253 | 39797 ft | 402 kts | 230° |
| 2026-04-25 19:39 | 35.43705 | -115.17243 | 39809 ft | 401 kts | 230° |
| 2026-04-25 19:40 | 35.39888 | -115.22212 | 39818 ft | 399 kts | 231° |
| 2026-04-25 19:40 | 35.36084 | -115.27166 | 39836 ft | 399 kts | 231° |
| 2026-04-25 19:41 | 35.32275 | -115.32121 | 39831 ft | 399 kts | 231° |
| 2026-04-25 19:41 | 35.29115 | -115.36227 | 39832 ft | 397 kts | 230° |
| 2026-04-25 19:42 | 35.24690 | -115.41970 | 39843 ft | 396 kts | 230° |
| 2026-04-25 19:42 | 35.20931 | -115.46839 | 39843 ft | 396 kts | 230° |
| 2026-04-25 19:43 | 35.17145 | -115.51736 | 39848 ft | 396 kts | 230° |
| 2026-04-25 19:43 | 35.13360 | -115.56625 | 39848 ft | 396 kts | 230° |
| 2026-04-25 19:44 | 35.09576 | -115.61497 | 39847 ft | 394 kts | 230° |
| 2026-04-25 19:44 | 35.05785 | -115.66337 | 39845 ft | 394 kts | 230° |
| 2026-04-25 19:45 | 35.01988 | -115.71182 | 39845 ft | 395 kts | 230° |
| 2026-04-25 19:45 | 34.98201 | -115.76010 | 39846 ft | 396 kts | 230° |
| 2026-04-25 19:46 | 34.94393 | -115.80860 | 39839 ft | 395 kts | 230° |
| 2026-04-25 19:46 | 34.90585 | -115.85704 | 39837 ft | 395 kts | 230° |
| 2026-04-25 19:47 | 34.86778 | -115.90538 | 39829 ft | 395 kts | 230° |
| 2026-04-25 19:47 | 34.82967 | -115.95371 | 39832 ft | 395 kts | 230° |
| 2026-04-25 19:48 | 34.79184 | -116.00162 | 39827 ft | 394 kts | 230° |
| 2026-04-25 19:48 | 34.75401 | -116.04968 | 39818 ft | 391 kts | 230° |
| 2026-04-25 19:49 | 34.72253 | -116.08979 | 39825 ft | 391 kts | 230° |
| 2026-04-25 19:49 | 34.67877 | -116.14550 | 39828 ft | 392 kts | 230° |
| 2026-04-25 19:50 | 34.64103 | -116.19346 | 39672 ft | 391 kts | 230° |
| 2026-04-25 19:50 | 34.62217 | -116.21740 | 39454 ft | 394 kts | 230° |
| 2026-04-25 19:50 | 34.60327 | -116.24138 | 39195 ft | 390 kts | 230° |
| 2026-04-25 19:51 | 34.58464 | -116.26498 | 38754 ft | 386 kts | 230° |
| 2026-04-25 19:51 | 34.56628 | -116.28824 | 38071 ft | 387 kts | 229° |
| 2026-04-25 19:51 | 34.54765 | -116.31182 | 37398 ft | 387 kts | 229° |
| 2026-04-25 19:51 | 34.52900 | -116.33543 | 36754 ft | 386 kts | 229° |
| 2026-04-25 19:52 | 34.51038 | -116.35898 | 36093 ft | 387 kts | 229° |
| 2026-04-25 19:52 | 34.49173 | -116.38254 | 35420 ft | 388 kts | 229° |
| 2026-04-25 19:52 | 34.47299 | -116.40620 | 34759 ft | 389 kts | 229° |
| 2026-04-25 19:52 | 34.45430 | -116.42977 | 34263 ft | 386 kts | 228° |
| 2026-04-25 19:53 | 34.43579 | -116.45331 | 33733 ft | 385 kts | 229° |
| 2026-04-25 19:53 | 34.41895 | -116.47823 | 33178 ft | 381 kts | 236° |
| 2026-04-25 19:53 | 34.40519 | -116.50543 | 32666 ft | 378 kts | 242° |
| 2026-04-25 19:53 | 34.39330 | -116.53366 | 32155 ft | 374 kts | 243° |
| 2026-04-25 19:54 | 34.38177 | -116.56182 | 31655 ft | 371 kts | 243° |
| 2026-04-25 19:54 | 34.37034 | -116.58976 | 31137 ft | 368 kts | 243° |
| 2026-04-25 19:54 | 34.35895 | -116.61749 | 30653 ft | 366 kts | 243° |
| 2026-04-25 19:54 | 34.35145 | -116.63571 | 30325 ft | 364 kts | 243° |
| 2026-04-25 19:55 | 34.33650 | -116.67197 | 29748 ft | 359 kts | 243° |
| 2026-04-25 19:55 | 34.32548 | -116.69897 | 29206 ft | 356 kts | 244° |
| 2026-04-25 19:55 | 34.31468 | -116.72590 | 28676 ft | 352 kts | 244° |
| 2026-04-25 19:55 | 34.30407 | -116.75239 | 28221 ft | 349 kts | 244° |
| 2026-04-25 19:56 | 34.29350 | -116.77878 | 27712 ft | 347 kts | 244° |
| 2026-04-25 19:56 | 34.28299 | -116.80493 | 27222 ft | 345 kts | 244° |
| 2026-04-25 19:56 | 34.27251 | -116.83095 | 26727 ft | 343 kts | 244° |
| 2026-04-25 19:56 | 34.26209 | -116.85679 | 26229 ft | 342 kts | 244° |
| 2026-04-25 19:57 | 34.25168 | -116.88258 | 25755 ft | 341 kts | 243° |
| 2026-04-25 19:57 | 34.24142 | -116.90799 | 25249 ft | 340 kts | 243° |
| 2026-04-25 19:57 | 34.23106 | -116.93363 | 24741 ft | 340 kts | 243° |
| 2026-04-25 19:57 | 34.22064 | -116.95937 | 24229 ft | 339 kts | 243° |
| 2026-04-25 19:58 | 34.21089 | -116.98539 | 23720 ft | 340 kts | 248° |
| 2026-04-25 19:58 | 34.20304 | -117.01237 | 23162 ft | 342 kts | 250° |
| 2026-04-25 19:58 | 34.19578 | -117.03946 | 22613 ft | 337 kts | 250° |
| 2026-04-25 19:58 | 34.18858 | -117.06638 | 22098 ft | 336 kts | 250° |
| 2026-04-25 19:59 | 34.18132 | -117.09319 | 21569 ft | 335 kts | 250° |
| 2026-04-25 19:59 | 34.17405 | -117.12001 | 21054 ft | 335 kts | 250° |
| 2026-04-25 19:59 | 34.16680 | -117.14674 | 20530 ft | 335 kts | 250° |
| 2026-04-25 19:59 | 34.15954 | -117.17346 | 20022 ft | 335 kts | 250° |
| 2026-04-25 20:00 | 34.15222 | -117.20017 | 19535 ft | 335 kts | 250° |
| 2026-04-25 20:00 | 34.14984 | -117.20882 | 19365 ft | 334 kts | 250° |
| 2026-04-25 20:00 | 34.13766 | -117.25296 | 18498 ft | 333 kts | 250° |
| 2026-04-25 20:00 | 34.13040 | -117.27928 | 18249 ft | 328 kts | 250° |
| 2026-04-25 20:01 | 34.11668 | -117.33164 | 17380 ft | 326 kts | 251° |
| 2026-04-25 20:01 | 34.10989 | -117.35784 | 16906 ft | 325 kts | 251° |
| 2026-04-25 20:01 | 34.10315 | -117.38380 | 16286 ft | 325 kts | 251° |
| 2026-04-25 20:02 | 34.09631 | -117.41003 | 15500 ft | 330 kts | 251° |
| 2026-04-25 20:02 | 34.08942 | -117.43639 | 14818 ft | 328 kts | 251° |
| 2026-04-25 20:02 | 34.08272 | -117.46204 | 14253 ft | 310 kts | 251° |
| 2026-04-25 20:02 | 34.07646 | -117.48604 | 14012 ft | 292 kts | 250° |
| 2026-04-25 20:03 | 34.07049 | -117.50887 | 13580 ft | 279 kts | 250° |
| 2026-04-25 20:03 | 34.06490 | -117.53069 | 13124 ft | 265 kts | 250° |
| 2026-04-25 20:03 | 34.05960 | -117.55155 | 12765 ft | 267 kts | 250° |
| 2026-04-25 20:03 | 34.05403 | -117.57337 | 12386 ft | 268 kts | 251° |
| 2026-04-25 20:04 | 34.04855 | -117.59485 | 11990 ft | 268 kts | 251° |
| 2026-04-25 20:04 | 34.04307 | -117.61625 | 11620 ft | 268 kts | 251° |
| 2026-04-25 20:04 | 34.03763 | -117.63750 | 11251 ft | 269 kts | 251° |
| 2026-04-25 20:04 | 34.03210 | -117.65906 | 10864 ft | 269 kts | 251° |
| 2026-04-25 20:05 | 34.02656 | -117.68067 | 10512 ft | 270 kts | 251° |
| 2026-04-25 20:05 | 34.02186 | -117.70265 | 10134 ft | 274 kts | 259° |
| 2026-04-25 20:05 | 34.01928 | -117.72512 | 9982 ft | 266 kts | 262° |
| 2026-04-25 20:05 | 34.01719 | -117.74711 | 9872 ft | 266 kts | 262° |
| 2026-04-25 20:06 | 34.01506 | -117.76953 | 9661 ft | 271 kts | 262° |
| 2026-04-25 20:06 | 34.01294 | -117.79213 | 9278 ft | 272 kts | 262° |
| 2026-04-25 20:06 | 34.01075 | -117.81489 | 8834 ft | 274 kts | 262° |
| 2026-04-25 20:06 | 34.00853 | -117.83760 | 8451 ft | 271 kts | 262° |
| 2026-04-25 20:07 | 34.00633 | -117.86009 | 8091 ft | 269 kts | 262° |
| 2026-04-25 20:07 | 34.00414 | -117.88241 | 7749 ft | 269 kts | 262° |
| 2026-04-25 20:07 | 34.00193 | -117.90479 | 7390 ft | 269 kts | 262° |
| 2026-04-25 20:07 | 33.99977 | -117.92705 | 7034 ft | 267 kts | 263° |
| 2026-04-25 20:08 | 33.99760 | -117.94939 | 6765 ft | 268 kts | 261° |
| 2026-04-25 20:08 | 33.99534 | -117.97171 | 6478 ft | 268 kts | 262° |
| 2026-04-25 20:08 | 33.99314 | -117.99418 | 6100 ft | 271 kts | 263° |
| 2026-04-25 20:08 | 33.99113 | -118.01622 | 5848 ft | 270 kts | 263° |
| 2026-04-25 20:09 | 33.98896 | -118.03880 | 5682 ft | 265 kts | 262° |
| 2026-04-25 20:09 | 33.98680 | -118.06055 | 5499 ft | 256 kts | 262° |
| 2026-04-25 20:09 | 33.98474 | -118.08144 | 5342 ft | 247 kts | 262° |
| 2026-04-25 20:09 | 33.98278 | -118.10142 | 5093 ft | 234 kts | 261° |
| 2026-04-25 20:10 | 33.98081 | -118.12059 | 4801 ft | 229 kts | 260° |
| 2026-04-25 20:10 | 33.97884 | -118.13963 | 4474 ft | 228 kts | 261° |
| 2026-04-25 20:10 | 33.97694 | -118.15849 | 4146 ft | 225 kts | 259° |
| 2026-04-25 20:10 | 33.97502 | -118.17712 | 3835 ft | 223 kts | 261° |
| 2026-04-25 20:11 | 33.97316 | -118.19551 | 3522 ft | 220 kts | 259° |
| 2026-04-25 20:11 | 33.97130 | -118.21382 | 3230 ft | 217 kts | 259° |
| 2026-04-25 20:11 | 33.96949 | -118.23145 | 2942 ft | 209 kts | 260° |
| 2026-04-25 20:11 | 33.96780 | -118.24829 | 2671 ft | 195 kts | 259° |
| 2026-04-25 20:12 | 33.96619 | -118.26400 | 2441 ft | 183 kts | 259° |
| 2026-04-25 20:12 | 33.96463 | -118.27913 | 2181 ft | 181 kts | 259° |
| 2026-04-25 20:12 | 33.96318 | -118.29358 | 1929 ft | 167 kts | 257° |
| 2026-04-25 20:12 | 33.96269 | -118.29826 | 1865 ft | 165 kts | 259° |
| 2026-04-25 20:13 | 33.96048 | -118.32002 | 1508 ft | 150 kts | 259° |
| 2026-04-25 20:13 | 33.95924 | -118.33208 | 1321 ft | 142 kts | 258° |
| 2026-04-25 20:13 | 33.95808 | -118.34352 | 1121 ft | 138 kts | 255° |
| 2026-04-25 20:13 | 33.95688 | -118.35488 | 952 ft | 136 kts | 258° |
| 2026-04-25 20:14 | 33.95579 | -118.36603 | 751 ft | 132 kts | 257° |
| 2026-04-25 20:14 | 33.95471 | -118.37692 | 578 ft | 130 kts | 255° |
| 2026-04-25 20:14 | 33.95357 | -118.38785 | 405 ft | 134 kts | 260° |
| 2026-04-25 20:14 | 33.95256 | -118.39896 | 215 ft | 132 kts | 257° |
| 2026-04-25 20:15 | 33.95135 | -118.40973 | 134 ft | 126 kts | 263° |
| 2026-04-25 20:15 | 33.95048 | -118.41770 | 122 ft | 49 kts | 262° |
| 2026-04-25 20:15 | 33.95025 | -118.41989 | 132 ft | 38 kts | 262° |
| 2026-04-25 20:15 | 33.94993 | -118.42294 | 132 ft | 35 kts | 262° |
| 2026-04-25 20:16 | 33.94942 | -118.42523 | 125 ft | 16 kts | 243° |
| 2026-04-25 20:16 | 33.94887 | -118.42628 | 123 ft | 15 kts | 233° |
| 2026-04-25 20:16 | 33.94813 | -118.42715 | 124 ft | 15 kts | 218° |
| 2026-04-25 20:16 | 33.94723 | -118.42768 | 129 ft | 14 kts | 195° |
| 2026-04-25 20:17 | 33.94654 | -118.42776 | 129 ft | 5 kts | 178° |
| 2026-04-25 20:17 | 33.94653 | -118.42776 | 129 ft | 0 kts | 178° |
| 2026-04-25 20:18 | 33.94652 | -118.42775 | 129 ft | 0 kts | 176° |
| 2026-04-25 20:18 | 33.94651 | -118.42775 | 129 ft | 1 kts | 174° |
| 2026-04-25 20:19 | 33.94641 | -118.42764 | 124 ft | 2 kts | 131° |
| 2026-04-25 20:19 | 33.94637 | -118.42744 | 126 ft | 4 kts | 101° |
| 2026-04-25 20:19 | 33.94637 | -118.42695 | 130 ft | 8 kts | 85° |
| 2026-04-25 20:19 | 33.94644 | -118.42618 | 132 ft | 11 kts | 83° |
| 2026-04-25 20:20 | 33.94654 | -118.42518 | 132 ft | 14 kts | 83° |
| 2026-04-25 20:20 | 33.94667 | -118.42388 | 126 ft | 17 kts | 82° |
| 2026-04-25 20:20 | 33.94685 | -118.42235 | 122 ft | 20 kts | 84° |
| 2026-04-25 20:20 | 33.94702 | -118.42056 | 126 ft | 23 kts | 83° |
| 2026-04-25 20:21 | 33.94718 | -118.41892 | 128 ft | 11 kts | 83° |
| 2026-04-25 20:21 | 33.94702 | -118.41835 | 130 ft | 6 kts | 142° |
| 2026-04-25 20:21 | 33.94648 | -118.41818 | 129 ft | 10 kts | 171° |
| 2026-04-25 20:21 | 33.94569 | -118.41807 | 129 ft | 13 kts | 173° |
| 2026-04-25 20:22 | 33.94470 | -118.41792 | 130 ft | 15 kts | 172° |
| 2026-04-25 20:22 | 33.94398 | -118.41781 | 126 ft | 17 kts | 173° |
| 2026-04-25 20:22 | 33.94246 | -118.41758 | 126 ft | 13 kts | 173° |
| 2026-04-25 20:22 | 33.94208 | -118.41737 | 129 ft | 3 kts | 112° |
| 2026-04-25 20:23 | 33.94220 | -118.41690 | 123 ft | 6 kts | 56° |
| 2026-04-25 20:23 | 33.94243 | -118.41658 | 123 ft | 5 kts | 59° |
| 2026-04-25 20:23 | 33.94253 | -118.41609 | 125 ft | 5 kts | 81° |
| 2026-04-25 20:23 | 33.94256 | -118.41584 | 124 ft | 2 kts | 83° |
| 2026-04-25 20:24 | 33.94257 | -118.41572 | 126 ft | 0 kts | 83° |